Bear Creek, Louisiana
Current Conditions -  °F | °C
As of 2:35 PM on Wednesday 26 Nov 2014 (Local Time) from KRSN Reporting Station
Clear Clear  
Wind Chill: 67°   Ceiling: Unl
Heat Index: 67°   Visibility: 10mi
Dew Point: 31°   Wind: 13mph
Humidity: 27%   Direction: 260°W
Pressure: 30.11"   Gusts: 22mph
Location:  32.3029°N, 92.924°W
Report Text: KRSN 262035Z AUTO 26011G19KT 10SM CLR 19/00 A3011 RMK AO2 T01941004
Loading
Personal Weather Stations






























Interactive Weather Map New forecast layout! Learn more

10-Day Weather Forecast

Advertisements
Track Severe Weather on mobile